createdAt,value
2023-05-14T00:01:33.734Z,41.20
2023-05-14T00:04:06.746Z,42.42
2023-05-14T00:06:38.993Z,41.92
2023-05-14T00:09:11.426Z,40.47
2023-05-14T00:11:43.574Z,42.95
2023-05-14T00:14:15.757Z,40.92
2023-05-14T00:16:48.534Z,40.37
2023-05-14T00:19:20.730Z,44.50
2023-05-14T00:21:53.436Z,44.15
2023-05-14T00:24:25.570Z,48.13
2023-05-14T00:26:57.852Z,47.70
2023-05-14T00:29:30.330Z,51.60
2023-05-14T00:32:03.526Z,47.47
2023-05-14T00:34:36.269Z,47.97
2023-05-14T00:37:08.654Z,47.20
2023-05-14T00:39:41.623Z,49.80
2023-05-14T00:42:13.875Z,47.80
2023-05-14T00:44:46.072Z,44.33
2023-05-14T00:47:18.919Z,53.30
2023-05-14T00:49:51.249Z,48.63
2023-05-14T00:52:23.451Z,50.15
2023-05-14T00:54:56.295Z,49.85
2023-05-14T00:57:28.956Z,46.43
2023-05-14T01:00:01.912Z,46.63
2023-05-14T01:02:34.421Z,48.63
2023-05-14T01:05:07.993Z,52.50
2023-05-14T01:07:59.308Z,48.80
2023-05-14T01:10:46.049Z,44.80
2023-05-14T01:13:37.364Z,43.25
2023-05-14T01:16:14.341Z,46.22
2023-05-14T01:18:49.122Z,43.55
2023-05-14T01:21:38.299Z,43.35
2023-05-14T01:24:10.810Z,47.78
2023-05-14T01:26:43.161Z,46.20
2023-05-14T01:29:23.721Z,43.90
2023-05-14T01:32:00.898Z,44.88
2023-05-14T01:34:35.666Z,44.85
2023-05-14T01:37:10.912Z,39.03
2023-05-14T01:39:43.499Z,38.00
2023-05-14T01:42:15.978Z,41.38
2023-05-14T01:44:48.526Z,47.03
2023-05-14T01:47:20.997Z,42.03
2023-05-14T01:49:54.119Z,45.65
2023-05-14T01:52:26.444Z,40.60
2023-05-14T01:55:00.236Z,39.30
2023-05-14T01:57:32.617Z,45.78
2023-05-14T02:00:05.557Z,44.20
2023-05-14T02:02:46.482Z,42.25
2023-05-14T02:05:19.868Z,45.80
2023-05-14T02:07:52.218Z,44.33
2023-05-14T02:10:24.620Z,40.28
2023-05-14T02:12:57.155Z,46.73
2023-05-14T02:15:29.533Z,53.35
2023-05-14T02:18:02.154Z,41.17
2023-05-14T02:20:34.924Z,45.90
2023-05-14T02:23:07.715Z,44.55
2023-05-14T02:25:40.075Z,45.97
2023-05-14T02:28:12.291Z,44.20
2023-05-14T02:30:44.530Z,43.13
2023-05-14T02:33:16.926Z,39.97
2023-05-14T02:35:49.350Z,47.75
2023-05-14T02:38:22.566Z,46.00
2023-05-14T02:40:54.707Z,41.70
2023-05-14T02:43:26.861Z,46.72
2023-05-14T02:45:59.216Z,49.67
2023-05-14T02:48:31.984Z,51.83
2023-05-14T02:51:04.486Z,58.60
2023-05-14T02:53:36.702Z,56.78
2023-05-14T02:56:08.850Z,50.58
2023-05-14T02:58:41.347Z,60.88
2023-05-14T03:01:13.636Z,50.83
2023-05-14T03:03:46.749Z,51.63
2023-05-14T03:06:19.725Z,64.57
2023-05-14T03:08:52.164Z,63.22
2023-05-14T03:11:24.449Z,71.93
2023-05-14T03:13:56.990Z,62.15
2023-05-14T03:16:29.243Z,70.05
2023-05-14T03:19:02.764Z,62.80
2023-05-14T03:21:35.183Z,67.32
2023-05-14T03:24:07.407Z,62.78
2023-05-14T03:26:39.563Z,64.53
2023-05-14T03:29:12.916Z,61.13
2023-05-14T03:31:45.951Z,67.25
2023-05-14T03:34:18.716Z,67.32
2023-05-14T03:36:51.001Z,62.63
2023-05-14T03:39:23.449Z,69.82
2023-05-14T03:41:57.494Z,79.18
2023-05-14T03:47:01.930Z,67.07
2023-05-14T03:49:34.080Z,73.35
2023-05-14T03:52:06.327Z,73.40
2023-05-14T03:54:38.892Z,66.85
2023-05-14T03:57:11.298Z,73.00
2023-05-14T03:59:43.561Z,77.32
2023-05-14T04:02:15.901Z,69.47
2023-05-14T04:04:48.487Z,62.88
2023-05-14T04:07:24.653Z,73.80
2023-05-14T04:10:01.118Z,78.78
2023-05-14T04:12:35.054Z,83.85
2023-05-14T04:15:08.535Z,83.10
2023-05-14T04:17:40.856Z,81.03
2023-05-14T04:20:13.712Z,79.03
2023-05-14T04:22:45.898Z,76.70
2023-05-14T04:25:18.735Z,84.53
2023-05-14T04:27:51.091Z,77.38
2023-05-14T04:30:23.886Z,80.45
2023-05-14T04:32:56.202Z,87.22
2023-05-14T04:35:28.485Z,84.80
2023-05-14T04:38:01.138Z,91.13
2023-05-14T04:40:33.376Z,87.45
2023-05-14T04:43:06.886Z,78.35
2023-05-14T04:45:39.065Z,85.40
2023-05-14T04:48:11.255Z,74.72
2023-05-14T04:50:44.495Z,103.53
2023-05-14T04:53:16.786Z,95.45
2023-05-14T04:55:49.344Z,100.60
2023-05-14T04:58:23.865Z,80.40
2023-05-14T05:00:56.087Z,98.07
2023-05-14T05:03:28.501Z,100.22
2023-05-14T05:06:00.908Z,90.43
2023-05-14T05:08:33.290Z,99.97
2023-05-14T05:11:05.855Z,91.97
2023-05-14T05:13:38.044Z,105.68
2023-05-14T05:16:10.227Z,91.45
2023-05-14T05:18:44.791Z,117.45
2023-05-14T05:21:16.992Z,103.47
2023-05-14T05:23:49.517Z,98.20
2023-05-14T05:26:22.459Z,103.15
2023-05-14T05:28:54.851Z,91.50
2023-05-14T05:31:27.218Z,102.82
2023-05-14T05:34:00.721Z,98.43
2023-05-14T05:36:33.064Z,90.43
2023-05-14T05:39:05.215Z,77.60
2023-05-14T05:41:37.392Z,92.63
2023-05-14T05:44:09.746Z,91.80
2023-05-14T05:46:41.955Z,87.20
2023-05-14T05:49:14.431Z,90.72
2023-05-14T05:51:47.461Z,93.20
2023-05-14T05:54:20.151Z,83.23
2023-05-14T05:56:52.515Z,96.63
2023-05-14T05:59:25.345Z,89.72
2023-05-14T06:01:57.718Z,85.25
2023-05-14T06:04:29.949Z,86.55
2023-05-14T06:07:02.330Z,105.68
2023-05-14T06:09:34.568Z,133.23
2023-05-14T06:12:07.761Z,98.57
2023-05-14T06:14:39.942Z,97.28
2023-05-14T06:17:12.191Z,98.45
2023-05-14T06:19:44.350Z,81.32
2023-05-14T06:22:16.539Z,94.38
2023-05-14T06:24:49.417Z,89.22
2023-05-14T06:27:22.219Z,88.47
2023-05-14T06:29:54.723Z,77.40
2023-05-14T06:32:27.041Z,72.22
2023-05-14T06:34:59.326Z,74.43
2023-05-14T06:37:31.678Z,66.75
2023-05-14T06:40:04.358Z,72.60
2023-05-14T06:42:37.034Z,64.43
2023-05-14T06:45:10.898Z,64.32
2023-05-14T06:47:43.132Z,60.63
2023-05-14T06:50:15.970Z,56.37
2023-05-14T06:52:48.420Z,58.55
2023-05-14T06:55:21.163Z,57.05
2023-05-14T06:57:53.334Z,53.87
2023-05-14T07:00:26.207Z,122.38
2023-05-14T07:02:58.632Z,60.40
2023-05-14T07:05:31.637Z,63.60
2023-05-14T07:08:03.952Z,58.03
2023-05-14T07:10:36.174Z,56.70
2023-05-14T07:13:09.168Z,50.17
2023-05-14T07:15:41.316Z,58.13
2023-05-14T07:18:13.759Z,53.65
2023-05-14T07:20:46.056Z,61.95
2023-05-14T07:23:19.904Z,61.38
2023-05-14T07:25:52.471Z,64.18
2023-05-14T07:28:24.689Z,59.05
2023-05-14T07:30:57.498Z,59.47
2023-05-14T07:33:29.797Z,66.65
2023-05-14T07:36:02.754Z,53.58
2023-05-14T07:38:35.978Z,52.75
2023-05-14T07:41:12.608Z,53.95
2023-05-14T07:43:44.890Z,54.45
2023-05-14T07:46:17.097Z,53.85
2023-05-14T07:48:49.653Z,56.45
2023-05-14T07:51:22.092Z,55.10
2023-05-14T07:53:55.967Z,46.30
2023-05-14T07:56:28.501Z,56.58
2023-05-14T07:59:01.070Z,60.28
2023-05-14T08:01:33.371Z,55.05
2023-05-14T08:04:05.712Z,59.22
2023-05-14T08:06:38.242Z,50.58
2023-05-14T08:09:10.400Z,46.92
2023-05-14T08:11:42.940Z,48.85
2023-05-14T08:14:15.222Z,51.67
2023-05-14T08:16:48.088Z,55.72
2023-05-14T08:19:20.433Z,47.10
2023-05-14T08:21:53.322Z,45.60
2023-05-14T08:24:28.567Z,40.25
2023-05-14T08:27:00.775Z,44.17
2023-05-14T08:29:33.220Z,45.13
2023-05-14T08:32:15.455Z,41.45
2023-05-14T08:34:55.117Z,48.65
2023-05-14T08:37:27.495Z,75.03
2023-05-14T08:40:00.134Z,52.50
2023-05-14T08:42:32.763Z,46.53
2023-05-14T08:45:07.276Z,52.38
2023-05-14T08:47:39.875Z,51.08
2023-05-14T08:50:12.803Z,58.75
2023-05-14T08:52:45.800Z,56.53
2023-05-14T08:55:18.887Z,43.70
2023-05-14T08:57:51.343Z,42.60
2023-05-14T09:00:24.871Z,50.25
2023-05-14T09:02:57.907Z,45.33
2023-05-14T09:05:31.155Z,53.35
2023-05-14T09:08:04.199Z,62.35
2023-05-14T09:10:36.516Z,42.28
2023-05-14T09:13:10.437Z,63.22
2023-05-14T09:15:42.997Z,63.10
2023-05-14T09:18:15.248Z,57.67
2023-05-14T09:20:48.340Z,37.20
2023-05-14T09:23:20.589Z,64.60
2023-05-14T09:25:53.368Z,61.25
2023-05-14T09:28:28.320Z,42.05
2023-05-14T09:31:02.332Z,41.67
2023-05-14T09:33:35.718Z,35.72
2023-05-14T09:38:41.367Z,29.77
2023-05-14T09:41:13.766Z,37.83
2023-05-14T09:43:48.815Z,34.35
2023-05-14T09:46:22.036Z,31.33
2023-05-14T09:48:57.197Z,27.45
2023-05-14T09:51:32.413Z,30.23
2023-05-14T09:54:06.700Z,26.80
2023-05-14T09:56:40.068Z,25.15
2023-05-14T09:59:12.462Z,27.48
2023-05-14T10:01:44.937Z,28.65
2023-05-14T10:04:17.872Z,31.83
2023-05-14T10:06:52.086Z,25.58
2023-05-14T10:09:28.174Z,27.80
2023-05-14T10:12:02.636Z,26.17
2023-05-14T10:14:41.447Z,23.08
2023-05-14T10:17:18.753Z,25.92
2023-05-14T10:19:54.930Z,24.50
2023-05-14T10:22:34.270Z,24.27
2023-05-14T10:25:07.191Z,23.20
2023-05-14T10:27:41.520Z,23.20
2023-05-14T10:30:14.080Z,23.88
2023-05-14T10:32:46.418Z,20.80
2023-05-14T10:35:22.891Z,20.13
2023-05-14T10:37:55.239Z,21.27
2023-05-14T10:40:28.687Z,19.73
2023-05-14T10:43:01.077Z,21.67
2023-05-14T10:45:34.521Z,16.85
2023-05-14T10:48:07.506Z,19.25
2023-05-14T10:50:39.783Z,17.08
2023-05-14T10:53:13.903Z,17.77
2023-05-14T10:55:46.616Z,19.90
2023-05-14T10:58:19.582Z,17.97
2023-05-14T11:00:55.656Z,18.27
2023-05-14T11:03:34.100Z,15.75
2023-05-14T11:06:07.504Z,17.17
2023-05-14T11:08:40.519Z,18.75
2023-05-14T11:11:12.807Z,20.05
2023-05-14T11:13:45.222Z,19.33
2023-05-14T11:16:23.464Z,16.27
2023-05-14T11:19:04.313Z,14.85
2023-05-14T11:21:36.911Z,18.73
2023-05-14T11:24:09.436Z,13.68
2023-05-14T11:26:41.740Z,16.30
2023-05-14T11:29:17.622Z,14.38
2023-05-14T11:31:50.954Z,14.77
2023-05-14T11:34:23.461Z,14.98
2023-05-14T11:36:55.941Z,14.65
2023-05-14T11:39:28.402Z,12.80
2023-05-14T11:42:04.471Z,14.07
2023-05-14T11:44:38.648Z,14.10
2023-05-14T11:47:11.965Z,16.08
2023-05-14T11:49:44.420Z,13.82
2023-05-14T11:52:19.728Z,13.32
2023-05-14T11:54:52.291Z,12.93
2023-05-14T11:57:25.388Z,11.45
2023-05-14T11:59:58.125Z,11.00
2023-05-14T12:02:30.532Z,17.90
2023-05-14T12:05:03.586Z,13.35
2023-05-14T12:07:36.449Z,11.80
2023-05-14T12:10:09.360Z,14.63
2023-05-14T12:12:49.161Z,11.43
2023-05-14T12:15:22.568Z,9.85
2023-05-14T12:20:30.519Z,10.93
2023-05-14T12:23:02.997Z,12.18
2023-05-14T12:25:35.569Z,8.48
2023-05-14T12:28:17.978Z,10.27
2023-05-14T12:30:57.663Z,12.02
2023-05-14T12:33:30.752Z,8.65
2023-05-14T12:36:14.000Z,11.23
2023-05-14T12:39:04.468Z,8.10
2023-05-14T12:41:37.160Z,9.07
2023-05-14T12:44:09.647Z,8.07
2023-05-14T12:46:42.114Z,8.55
2023-05-14T12:49:14.569Z,9.27
2023-05-14T12:51:47.247Z,10.20
2023-05-14T12:54:19.507Z,9.20
2023-05-14T12:56:52.025Z,8.18
2023-05-14T12:59:25.158Z,11.82
2023-05-14T13:01:57.612Z,9.48
2023-05-14T13:04:30.081Z,8.40
2023-05-14T13:07:02.366Z,8.82
2023-05-14T13:09:35.021Z,7.40
2023-05-14T13:12:07.813Z,8.68
2023-05-14T13:14:40.205Z,8.35
2023-05-14T13:17:12.549Z,7.28
2023-05-14T13:19:44.896Z,10.13
2023-05-14T13:22:19.108Z,9.75
2023-05-14T13:24:51.298Z,11.15
2023-05-14T13:27:24.192Z,8.95
2023-05-14T13:29:57.109Z,9.60
2023-05-14T13:32:29.583Z,9.00
2023-05-14T13:35:02.409Z,7.88
2023-05-14T13:37:34.698Z,7.20
2023-05-14T13:40:08.732Z,6.28
2023-05-14T13:42:41.066Z,6.28
2023-05-14T13:45:13.794Z,6.22
2023-05-14T13:47:46.154Z,9.20
2023-05-14T13:50:18.910Z,6.63
2023-05-14T13:52:51.207Z,5.82
2023-05-14T13:55:24.119Z,7.40
2023-05-14T13:57:56.726Z,7.75
2023-05-14T14:00:29.276Z,8.10
2023-05-14T14:03:02.199Z,7.05
2023-05-14T14:05:37.349Z,9.68
2023-05-14T14:08:22.637Z,7.70
2023-05-14T14:10:56.321Z,6.70
2023-05-14T14:13:29.681Z,11.10
2023-05-14T14:16:03.450Z,6.47
2023-05-14T14:18:36.396Z,5.70
2023-05-14T14:21:09.636Z,6.47
2023-05-14T14:23:41.880Z,5.10
2023-05-14T14:26:14.810Z,6.15
2023-05-14T14:28:47.472Z,6.13
2023-05-14T14:31:20.404Z,6.80
2023-05-14T14:33:52.736Z,6.82
2023-05-14T14:36:24.920Z,6.65
2023-05-14T14:38:57.712Z,6.65
2023-05-14T14:41:31.005Z,5.57
2023-05-14T14:44:03.461Z,5.95
2023-05-14T14:46:35.687Z,5.63
2023-05-14T14:49:07.914Z,5.20
2023-05-14T14:51:41.126Z,6.45
2023-05-14T14:54:13.426Z,5.05
2023-05-14T14:56:46.186Z,4.80
2023-05-14T14:59:18.447Z,13.45
2023-05-14T15:01:50.689Z,6.95
2023-05-14T15:04:23.815Z,6.95
2023-05-14T15:06:56.288Z,5.65
2023-05-14T15:09:28.672Z,7.05
2023-05-14T15:12:01.383Z,4.93
2023-05-14T15:14:33.716Z,5.00
2023-05-14T15:17:05.892Z,4.97
2023-05-14T15:19:38.786Z,4.00
2023-05-14T15:22:11.200Z,5.22
2023-05-14T15:24:43.392Z,7.43
2023-05-14T15:27:15.959Z,5.55
2023-05-14T15:29:48.468Z,4.77
2023-05-14T15:32:20.982Z,6.90
2023-05-14T15:34:53.524Z,6.25
2023-05-14T15:37:26.975Z,3.58
2023-05-14T15:39:59.614Z,4.18
2023-05-14T15:42:32.070Z,4.33
2023-05-14T15:45:05.558Z,3.80
2023-05-14T15:47:38.652Z,3.20
2023-05-14T15:50:11.508Z,5.87
2023-05-14T15:52:43.829Z,2.95
2023-05-14T15:55:16.082Z,2.50
2023-05-14T15:57:48.260Z,4.53
2023-05-14T16:00:21.307Z,4.40
2023-05-14T16:02:54.281Z,4.45
2023-05-14T16:05:26.722Z,4.25
2023-05-14T16:07:59.797Z,4.82
2023-05-14T16:10:32.139Z,8.05
2023-05-14T16:13:04.517Z,9.93
2023-05-14T16:15:36.707Z,9.75
2023-05-14T16:18:09.290Z,10.27
2023-05-14T16:20:42.018Z,6.73
2023-05-14T16:23:14.286Z,12.48
2023-05-14T16:25:46.821Z,8.13
2023-05-14T16:28:19.107Z,8.80
2023-05-14T16:30:51.409Z,12.90
2023-05-14T16:33:24.312Z,10.68
2023-05-14T16:35:56.902Z,8.85
2023-05-14T16:38:29.299Z,9.20
2023-05-14T16:41:02.813Z,12.77
2023-05-14T16:43:36.484Z,11.40
2023-05-14T16:46:09.242Z,14.77
2023-05-14T16:48:42.443Z,12.48
2023-05-14T16:51:16.066Z,10.40
2023-05-14T16:53:48.925Z,12.15
2023-05-14T16:56:21.851Z,9.63
2023-05-14T16:58:55.003Z,13.02
2023-05-14T17:01:30.540Z,12.68
2023-05-14T17:04:02.884Z,14.73
2023-05-14T17:06:35.966Z,9.57
2023-05-14T17:09:08.611Z,11.95
2023-05-14T17:11:41.278Z,8.68
2023-05-14T17:14:13.747Z,5.83
2023-05-14T17:16:46.663Z,9.73
2023-05-14T17:19:21.792Z,9.35
2023-05-14T17:21:54.156Z,9.57
2023-05-14T17:24:26.724Z,11.00
2023-05-14T17:26:59.311Z,8.35
2023-05-14T17:29:32.146Z,7.82
2023-05-14T17:32:05.194Z,7.33
2023-05-14T17:37:10.723Z,8.68
2023-05-14T17:39:48.326Z,14.43
2023-05-14T17:42:20.820Z,13.57
2023-05-14T17:44:54.526Z,10.32
2023-05-14T17:47:30.116Z,8.38
2023-05-14T17:50:05.733Z,8.48
2023-05-14T17:52:42.470Z,8.38
2023-05-14T17:55:15.321Z,8.90
2023-05-14T17:57:48.027Z,7.28
2023-05-14T18:00:20.590Z,9.30
2023-05-14T18:02:53.429Z,7.15
2023-05-14T18:05:31.856Z,7.05
2023-05-14T18:08:04.785Z,7.85
2023-05-14T18:10:37.827Z,6.65
2023-05-14T18:13:13.026Z,5.40
2023-05-14T18:15:45.323Z,8.75
2023-05-14T18:18:18.970Z,8.40
2023-05-14T18:20:55.311Z,8.23
2023-05-14T18:23:28.764Z,8.43
2023-05-14T18:26:02.092Z,6.07
2023-05-14T18:28:36.938Z,7.88
2023-05-14T18:31:11.621Z,6.30
2023-05-14T18:33:44.335Z,8.13
2023-05-14T18:36:18.305Z,6.73
2023-05-14T18:38:51.152Z,6.47
2023-05-14T18:41:26.218Z,7.97
2023-05-14T18:43:58.954Z,7.47
2023-05-14T18:46:32.313Z,11.30
2023-05-14T18:49:05.114Z,10.43
2023-05-14T18:51:38.310Z,7.63
2023-05-14T18:54:10.689Z,11.05
2023-05-14T18:56:47.386Z,7.65
2023-05-14T18:59:21.347Z,11.57
2023-05-14T19:01:54.638Z,8.20
2023-05-14T19:04:27.239Z,6.70
2023-05-14T19:06:59.550Z,6.60
2023-05-14T19:09:31.812Z,7.00
2023-05-14T19:12:04.716Z,5.95
2023-05-14T19:14:37.801Z,8.70
2023-05-14T19:17:10.467Z,8.82
2023-05-14T19:19:42.834Z,10.17
2023-05-14T19:22:15.433Z,10.05
2023-05-14T19:24:47.609Z,8.18
2023-05-14T19:27:20.887Z,11.82
2023-05-14T19:29:53.235Z,10.25
2023-05-14T19:32:25.726Z,7.18
2023-05-14T19:34:58.104Z,6.50
2023-05-14T19:37:30.325Z,7.30
2023-05-14T19:40:02.756Z,7.25
2023-05-14T19:42:34.985Z,7.40
2023-05-14T19:45:08.207Z,7.75
2023-05-14T19:47:40.703Z,8.70
2023-05-14T19:50:13.359Z,7.68
2023-05-14T19:52:45.630Z,9.70
2023-05-14T19:55:18.215Z,12.45
2023-05-14T19:57:50.953Z,14.13
2023-05-14T20:00:24.381Z,13.73
2023-05-14T20:05:34.772Z,13.05
2023-05-14T20:08:08.290Z,10.27
2023-05-14T20:10:42.078Z,11.10
2023-05-14T20:13:14.890Z,10.18
2023-05-14T20:15:47.302Z,9.32
2023-05-14T20:18:19.831Z,11.00
2023-05-14T20:20:52.231Z,15.55
2023-05-14T20:23:24.533Z,11.50
2023-05-14T20:25:56.968Z,11.55
2023-05-14T20:28:30.511Z,11.85
2023-05-14T20:31:04.458Z,12.90
2023-05-14T20:33:36.707Z,14.05
2023-05-14T20:36:09.371Z,14.02
2023-05-14T20:38:42.122Z,14.90
2023-05-14T20:41:15.361Z,15.57
2023-05-14T20:43:47.849Z,21.45
2023-05-14T20:46:20.643Z,12.45
2023-05-14T20:48:56.373Z,13.45
2023-05-14T20:51:29.899Z,19.38
2023-05-14T20:54:03.408Z,21.98
2023-05-14T20:56:36.753Z,13.88
2023-05-14T20:59:10.255Z,20.42
2023-05-14T21:04:16.628Z,32.63
2023-05-14T21:06:50.161Z,40.72
2023-05-14T21:09:24.098Z,33.90
2023-05-14T21:11:56.713Z,29.70
2023-05-14T21:14:31.383Z,30.92
2023-05-14T21:17:03.935Z,28.70
2023-05-14T21:19:37.534Z,26.23
2023-05-14T21:24:44.301Z,26.05
2023-05-14T21:27:18.586Z,24.70
2023-05-14T21:29:51.166Z,17.27
2023-05-14T21:32:25.864Z,16.67
2023-05-14T21:34:58.450Z,11.52
2023-05-14T21:37:31.290Z,13.73
2023-05-14T21:40:05.776Z,15.70
2023-05-14T21:42:40.679Z,14.32
2023-05-14T21:45:13.948Z,11.35
2023-05-14T21:47:46.808Z,11.33
2023-05-14T21:50:20.042Z,15.02
2023-05-14T21:52:53.485Z,13.43
2023-05-14T21:55:28.487Z,13.25
2023-05-14T21:58:04.045Z,10.27
2023-05-14T22:00:37.084Z,9.98
2023-05-14T22:03:10.792Z,12.00
2023-05-14T22:05:44.433Z,8.95
2023-05-14T22:08:19.523Z,8.10
2023-05-14T22:10:53.537Z,8.60
2023-05-14T22:13:27.877Z,8.77
2023-05-14T22:16:12.256Z,9.13
2023-05-14T22:18:48.367Z,9.10
2023-05-14T22:21:22.215Z,6.47
2023-05-14T22:23:55.187Z,6.97
2023-05-14T22:26:28.594Z,8.90
2023-05-14T22:29:01.705Z,12.35
2023-05-14T22:31:34.414Z,12.23
2023-05-14T22:34:07.434Z,13.43
2023-05-14T22:36:40.332Z,9.25
2023-05-14T22:39:13.722Z,9.00
2023-05-14T22:41:46.592Z,6.72
2023-05-14T22:44:19.767Z,7.63
2023-05-14T22:46:52.849Z,8.63
2023-05-14T22:49:25.585Z,8.45
2023-05-14T22:51:58.324Z,8.25
2023-05-14T22:54:31.309Z,10.27
2023-05-14T22:57:04.295Z,13.48
2023-05-14T22:59:36.875Z,14.73
2023-05-14T23:02:09.518Z,10.57
2023-05-14T23:04:41.920Z,10.33
2023-05-14T23:07:14.199Z,12.40
2023-05-14T23:09:46.550Z,9.90
2023-05-14T23:12:19.437Z,11.32
2023-05-14T23:14:52.112Z,9.27
2023-05-14T23:17:25.150Z,15.00
2023-05-14T23:19:57.781Z,15.68
2023-05-14T23:22:30.917Z,14.82
2023-05-14T23:25:05.102Z,17.25
2023-05-14T23:27:37.642Z,13.95
2023-05-14T23:30:11.060Z,19.03
2023-05-14T23:32:44.230Z,12.45
2023-05-14T23:35:17.275Z,12.40
2023-05-14T23:37:51.889Z,20.00
2023-05-14T23:40:24.529Z,17.88
2023-05-14T23:42:59.981Z,16.77
2023-05-14T23:45:33.409Z,15.25
2023-05-14T23:48:07.281Z,17.73
2023-05-14T23:53:13.699Z,22.58
2023-05-14T23:55:46.863Z,22.20
2023-05-14T23:58:19.819Z,24.15
